sensor_id;sensor_type;location;lat;lon;timestamp;temperature;humidity
1301;DHT22;59099;48.806;9.160;2022-12-18T00:02:06;-8.80;99.90
1301;DHT22;59099;48.806;9.160;2022-12-18T00:04:32;-8.70;99.90
1301;DHT22;59099;48.806;9.160;2022-12-18T00:06:58;-8.70;99.90
1301;DHT22;59099;48.806;9.160;2022-12-18T00:09:24;-8.70;99.90
1301;DHT22;59099;48.806;9.160;2022-12-18T00:11:50;-8.80;99.90
1301;DHT22;59099;48.806;9.160;2022-12-18T00:14:16;-8.80;99.90
1301;DHT22;59099;48.806;9.160;2022-12-18T00:16:44;-8.70;99.90
1301;DHT22;59099;48.806;9.160;2022-12-18T00:19:10;-8.80;99.90
1301;DHT22;59099;48.806;9.160;2022-12-18T00:21:36;-8.70;99.90
1301;DHT22;59099;48.806;9.160;2022-12-18T00:24:05;-8.70;99.90
1301;DHT22;59099;48.806;9.160;2022-12-18T00:26:32;-8.60;99.90
1301;DHT22;59099;48.806;9.160;2022-12-18T00:29:10;-8.60;99.90
1301;DHT22;59099;48.806;9.160;2022-12-18T00:31:37;-8.60;99.90
1301;DHT22;59099;48.806;9.160;2022-12-18T00:34:03;-8.70;99.90
1301;DHT22;59099;48.806;9.160;2022-12-18T00:36:32;-8.70;99.90
1301;DHT22;59099;48.806;9.160;2022-12-18T00:39:00;-8.80;99.90
1301;DHT22;59099;48.806;9.160;2022-12-18T00:41:27;-8.70;99.90
1301;DHT22;59099;48.806;9.160;2022-12-18T00:44:14;-8.70;99.90
1301;DHT22;59099;48.806;9.160;2022-12-18T00:46:40;-8.70;99.90
1301;DHT22;59099;48.806;9.160;2022-12-18T00:49:06;-8.60;99.90
1301;DHT22;59099;48.806;9.160;2022-12-18T00:51:33;-8.60;99.90
1301;DHT22;59099;48.806;9.160;2022-12-18T00:53:59;-8.70;99.90
1301;DHT22;59099;48.806;9.160;2022-12-18T00:56:25;-8.70;99.90
1301;DHT22;59099;48.806;9.160;2022-12-18T00:58:52;-8.80;99.90
1301;DHT22;59099;48.806;9.160;2022-12-18T01:01:18;-8.90;99.90
1301;DHT22;59099;48.806;9.160;2022-12-18T01:03:44;-9.00;99.90
1301;DHT22;59099;48.806;9.160;2022-12-18T01:06:14;-9.00;99.90
1301;DHT22;59099;48.806;9.160;2022-12-18T01:08:40;-9.00;99.90
1301;DHT22;59099;48.806;9.160;2022-12-18T01:11:15;-9.00;99.90
1301;DHT22;59099;48.806;9.160;2022-12-18T01:13:43;-9.00;99.90
1301;DHT22;59099;48.806;9.160;2022-12-18T01:16:14;-8.90;99.90
1301;DHT22;59099;48.806;9.160;2022-12-18T01:18:41;-8.90;99.90
1301;DHT22;59099;48.806;9.160;2022-12-18T01:21:13;-8.90;99.90
1301;DHT22;59099;48.806;9.160;2022-12-18T01:23:39;-8.90;99.90
1301;DHT22;59099;48.806;9.160;2022-12-18T01:26:10;-8.90;99.90
1301;DHT22;59099;48.806;9.160;2022-12-18T01:28:40;-8.90;99.90
1301;DHT22;59099;48.806;9.160;2022-12-18T01:33:35;-8.80;99.90
1301;DHT22;59099;48.806;9.160;2022-12-18T01:36:01;-8.80;99.90
1301;DHT22;59099;48.806;9.160;2022-12-18T01:38:28;-8.80;99.90
1301;DHT22;59099;48.806;9.160;2022-12-18T01:40:59;-8.80;99.90
1301;DHT22;59099;48.806;9.160;2022-12-18T01:46:19;-8.90;99.90
1301;DHT22;59099;48.806;9.160;2022-12-18T01:48:48;-8.90;99.90
1301;DHT22;59099;48.806;9.160;2022-12-18T01:51:17;-8.90;99.90
1301;DHT22;59099;48.806;9.160;2022-12-18T01:53:44;-8.90;99.90
1301;DHT22;59099;48.806;9.160;2022-12-18T01:56:14;-8.90;99.90
1301;DHT22;59099;48.806;9.160;2022-12-18T01:59:02;-8.90;99.90
1301;DHT22;59099;48.806;9.160;2022-12-18T02:01:30;-8.90;99.90
1301;DHT22;59099;48.806;9.160;2022-12-18T02:04:23;-8.90;99.90
1301;DHT22;59099;48.806;9.160;2022-12-18T02:07:01;-8.80;99.90
1301;DHT22;59099;48.806;9.160;2022-12-18T02:15:07;-8.90;99.90
1301;DHT22;59099;48.806;9.160;2022-12-18T02:17:50;-8.80;99.90
1301;DHT22;59099;48.806;9.160;2022-12-18T02:20:48;-8.80;99.90
1301;DHT22;59099;48.806;9.160;2022-12-18T02:26:18;-8.80;99.90
1301;DHT22;59099;48.806;9.160;2022-12-18T02:28:55;-8.70;99.90
1301;DHT22;59099;48.806;9.160;2022-12-18T02:31:26;-8.50;99.90
1301;DHT22;59099;48.806;9.160;2022-12-18T02:33:56;-8.60;99.90
1301;DHT22;59099;48.806;9.160;2022-12-18T02:36:23;-8.70;99.90
1301;DHT22;59099;48.806;9.160;2022-12-18T02:38:52;-8.70;99.90
1301;DHT22;59099;48.806;9.160;2022-12-18T02:41:21;-8.70;99.90
1301;DHT22;59099;48.806;9.160;2022-12-18T02:44:01;-8.70;99.90
1301;DHT22;59099;48.806;9.160;2022-12-18T02:46:44;-8.70;99.90
1301;DHT22;59099;48.806;9.160;2022-12-18T02:58:01;-8.70;99.90
1301;DHT22;59099;48.806;9.160;2022-12-18T03:03:45;-8.80;99.90
1301;DHT22;59099;48.806;9.160;2022-12-18T03:06:35;-8.70;99.90
1301;DHT22;59099;48.806;9.160;2022-12-18T03:09:09;-8.70;99.90
1301;DHT22;59099;48.806;9.160;2022-12-18T03:11:40;-8.70;99.90
1301;DHT22;59099;48.806;9.160;2022-12-18T03:14:30;-8.70;99.90
1301;DHT22;59099;48.806;9.160;2022-12-18T03:17:03;-8.60;99.90
1301;DHT22;59099;48.806;9.160;2022-12-18T03:19:31;-8.60;99.90
1301;DHT22;59099;48.806;9.160;2022-12-18T03:22:02;-8.60;99.90
1301;DHT22;59099;48.806;9.160;2022-12-18T03:24:38;-8.60;99.90
1301;DHT22;59099;48.806;9.160;2022-12-18T03:27:10;-8.60;99.90
1301;DHT22;59099;48.806;9.160;2022-12-18T03:29:56;-8.60;99.90
1301;DHT22;59099;48.806;9.160;2022-12-18T03:35:08;-8.70;99.90
1301;DHT22;59099;48.806;9.160;2022-12-18T03:37:37;-8.70;99.90
1301;DHT22;59099;48.806;9.160;2022-12-18T03:40:05;-8.80;99.90
1301;DHT22;59099;48.806;9.160;2022-12-18T03:45:47;-8.90;99.90
1301;DHT22;59099;48.806;9.160;2022-12-18T03:48:32;-8.80;99.90
1301;DHT22;59099;48.806;9.160;2022-12-18T03:51:35;-8.80;99.90
1301;DHT22;59099;48.806;9.160;2022-12-18T03:54:02;-8.80;99.90
1301;DHT22;59099;48.806;9.160;2022-12-18T03:56:38;-8.70;99.90
1301;DHT22;59099;48.806;9.160;2022-12-18T03:59:07;-8.70;99.90
1301;DHT22;59099;48.806;9.160;2022-12-18T04:01:42;-8.70;99.90
1301;DHT22;59099;48.806;9.160;2022-12-18T04:04:13;-8.80;99.90
1301;DHT22;59099;48.806;9.160;2022-12-18T04:06:42;-8.90;99.90
1301;DHT22;59099;48.806;9.160;2022-12-18T04:09:11;-8.80;99.90
1301;DHT22;59099;48.806;9.160;2022-12-18T04:11:42;-8.70;99.90
1301;DHT22;59099;48.806;9.160;2022-12-18T04:14:13;-8.70;99.90
1301;DHT22;59099;48.806;9.160;2022-12-18T04:16:39;-8.80;99.90
1301;DHT22;59099;48.806;9.160;2022-12-18T04:19:08;-8.80;99.90
1301;DHT22;59099;48.806;9.160;2022-12-18T04:21:39;-8.80;99.90
1301;DHT22;59099;48.806;9.160;2022-12-18T04:24:05;-8.90;99.90
1301;DHT22;59099;48.806;9.160;2022-12-18T04:26:34;-8.90;99.90
1301;DHT22;59099;48.806;9.160;2022-12-18T04:29:23;-8.80;99.90
1301;DHT22;59099;48.806;9.160;2022-12-18T04:31:49;-8.90;99.90
1301;DHT22;59099;48.806;9.160;2022-12-18T04:34:16;-9.00;99.90
1301;DHT22;59099;48.806;9.160;2022-12-18T04:36:48;-9.00;99.90
1301;DHT22;59099;48.806;9.160;2022-12-18T04:39:15;-9.00;99.90
1301;DHT22;59099;48.806;9.160;2022-12-18T04:41:47;-8.90;99.90
1301;DHT22;59099;48.806;9.160;2022-12-18T04:44:13;-8.80;99.90
1301;DHT22;59099;48.806;9.160;2022-12-18T04:46:39;-8.80;99.90
1301;DHT22;59099;48.806;9.160;2022-12-18T04:49:06;-8.70;99.90
1301;DHT22;59099;48.806;9.160;2022-12-18T04:51:31;-8.70;99.90
1301;DHT22;59099;48.806;9.160;2022-12-18T04:53:57;-8.70;99.90
1301;DHT22;59099;48.806;9.160;2022-12-18T04:56:23;-8.60;99.90
1301;DHT22;59099;48.806;9.160;2022-12-18T04:58:49;-8.40;99.90
1301;DHT22;59099;48.806;9.160;2022-12-18T05:01:17;-8.20;99.90
1301;DHT22;59099;48.806;9.160;2022-12-18T05:03:43;-8.10;99.90
1301;DHT22;59099;48.806;9.160;2022-12-18T05:06:09;-8.20;99.90
1301;DHT22;59099;48.806;9.160;2022-12-18T05:08:35;-8.20;99.90
1301;DHT22;59099;48.806;9.160;2022-12-18T05:11:03;-8.20;99.90
1301;DHT22;59099;48.806;9.160;2022-12-18T05:13:31;-8.20;99.90
1301;DHT22;59099;48.806;9.160;2022-12-18T05:15:57;-8.10;99.90
1301;DHT22;59099;48.806;9.160;2022-12-18T05:18:24;-8.10;99.90
1301;DHT22;59099;48.806;9.160;2022-12-18T05:20:50;-8.20;99.90
1301;DHT22;59099;48.806;9.160;2022-12-18T05:23:17;-8.10;99.90
1301;DHT22;59099;48.806;9.160;2022-12-18T05:25:50;-8.20;99.90
1301;DHT22;59099;48.806;9.160;2022-12-18T05:28:16;-8.30;99.90
1301;DHT22;59099;48.806;9.160;2022-12-18T05:30:42;-8.30;99.90
1301;DHT22;59099;48.806;9.160;2022-12-18T05:33:07;-8.30;99.90
1301;DHT22;59099;48.806;9.160;2022-12-18T05:35:33;-8.40;99.90
1301;DHT22;59099;48.806;9.160;2022-12-18T05:37:59;-8.40;99.90
1301;DHT22;59099;48.806;9.160;2022-12-18T05:40:25;-8.40;99.90
1301;DHT22;59099;48.806;9.160;2022-12-18T05:42:50;-8.50;99.90
1301;DHT22;59099;48.806;9.160;2022-12-18T05:45:16;-8.60;99.90
1301;DHT22;59099;48.806;9.160;2022-12-18T05:47:43;-8.60;99.90
1301;DHT22;59099;48.806;9.160;2022-12-18T05:50:09;-8.60;99.90
1301;DHT22;59099;48.806;9.160;2022-12-18T05:52:35;-8.60;99.90
1301;DHT22;59099;48.806;9.160;2022-12-18T05:55:00;-8.50;99.90
1301;DHT22;59099;48.806;9.160;2022-12-18T05:57:26;-8.40;99.90
1301;DHT22;59099;48.806;9.160;2022-12-18T05:59:52;-8.50;99.90
1301;DHT22;59099;48.806;9.160;2022-12-18T06:02:18;-8.50;99.90
1301;DHT22;59099;48.806;9.160;2022-12-18T06:04:45;-8.60;99.90
1301;DHT22;59099;48.806;9.160;2022-12-18T06:07:10;-8.60;99.90
1301;DHT22;59099;48.806;9.160;2022-12-18T06:09:36;-8.70;99.90
1301;DHT22;59099;48.806;9.160;2022-12-18T06:12:02;-8.80;99.90
1301;DHT22;59099;48.806;9.160;2022-12-18T06:14:28;-8.80;99.90
1301;DHT22;59099;48.806;9.160;2022-12-18T06:16:54;-8.90;99.90
1301;DHT22;59099;48.806;9.160;2022-12-18T06:19:19;-8.90;99.90
1301;DHT22;59099;48.806;9.160;2022-12-18T06:21:46;-8.90;99.90
1301;DHT22;59099;48.806;9.160;2022-12-18T06:24:12;-8.90;99.90
1301;DHT22;59099;48.806;9.160;2022-12-18T06:26:38;-9.00;99.90
1301;DHT22;59099;48.806;9.160;2022-12-18T06:29:05;-9.00;99.90
1301;DHT22;59099;48.806;9.160;2022-12-18T06:31:31;-9.20;99.90
1301;DHT22;59099;48.806;9.160;2022-12-18T06:33:57;-9.20;99.90
1301;DHT22;59099;48.806;9.160;2022-12-18T06:36:23;-9.20;99.90
1301;DHT22;59099;48.806;9.160;2022-12-18T06:38:49;-9.30;99.90
1301;DHT22;59099;48.806;9.160;2022-12-18T06:41:20;-9.40;99.90
1301;DHT22;59099;48.806;9.160;2022-12-18T06:43:46;-9.50;99.90
1301;DHT22;59099;48.806;9.160;2022-12-18T06:46:12;-9.50;99.90
1301;DHT22;59099;48.806;9.160;2022-12-18T06:48:38;-9.50;99.90
1301;DHT22;59099;48.806;9.160;2022-12-18T06:51:04;-9.50;99.90
1301;DHT22;59099;48.806;9.160;2022-12-18T06:53:39;-9.50;99.90
1301;DHT22;59099;48.806;9.160;2022-12-18T06:56:06;-9.50;99.90
1301;DHT22;59099;48.806;9.160;2022-12-18T06:58:32;-9.60;99.90
1301;DHT22;59099;48.806;9.160;2022-12-18T07:01:06;-9.50;99.90
1301;DHT22;59099;48.806;9.160;2022-12-18T07:03:32;-9.60;99.90
1301;DHT22;59099;48.806;9.160;2022-12-18T07:05:58;-9.60;99.90
1301;DHT22;59099;48.806;9.160;2022-12-18T07:08:24;-9.60;99.90
1301;DHT22;59099;48.806;9.160;2022-12-18T07:10:50;-9.60;99.90
1301;DHT22;59099;48.806;9.160;2022-12-18T07:13:19;-9.50;99.90
1301;DHT22;59099;48.806;9.160;2022-12-18T07:15:45;-9.50;99.90
1301;DHT22;59099;48.806;9.160;2022-12-18T07:18:11;-9.70;99.90
1301;DHT22;59099;48.806;9.160;2022-12-18T07:20:36;-9.60;99.90
1301;DHT22;59099;48.806;9.160;2022-12-18T07:23:03;-9.60;99.90
1301;DHT22;59099;48.806;9.160;2022-12-18T07:25:36;-9.50;99.90
1301;DHT22;59099;48.806;9.160;2022-12-18T07:28:02;-9.50;99.90
1301;DHT22;59099;48.806;9.160;2022-12-18T07:30:28;-9.60;99.90
1301;DHT22;59099;48.806;9.160;2022-12-18T07:32:54;-9.60;99.90
1301;DHT22;59099;48.806;9.160;2022-12-18T07:35:20;-9.60;99.90
1301;DHT22;59099;48.806;9.160;2022-12-18T07:37:46;-9.60;99.90
1301;DHT22;59099;48.806;9.160;2022-12-18T07:40:12;-9.60;99.90
1301;DHT22;59099;48.806;9.160;2022-12-18T07:42:38;-9.70;99.90
1301;DHT22;59099;48.806;9.160;2022-12-18T07:45:04;-9.70;99.90
1301;DHT22;59099;48.806;9.160;2022-12-18T07:47:30;-9.70;99.90
1301;DHT22;59099;48.806;9.160;2022-12-18T07:49:57;-9.60;99.90
1301;DHT22;59099;48.806;9.160;2022-12-18T07:52:22;-9.50;99.90
1301;DHT22;59099;48.806;9.160;2022-12-18T07:54:48;-9.50;99.90
1301;DHT22;59099;48.806;9.160;2022-12-18T07:57:16;-9.40;99.90
1301;DHT22;59099;48.806;9.160;2022-12-18T07:59:42;-9.40;99.90
1301;DHT22;59099;48.806;9.160;2022-12-18T08:02:08;-9.30;99.90
1301;DHT22;59099;48.806;9.160;2022-12-18T08:04:35;-9.30;99.90
1301;DHT22;59099;48.806;9.160;2022-12-18T08:07:00;-9.30;99.90
1301;DHT22;59099;48.806;9.160;2022-12-18T08:09:26;-9.40;99.90
1301;DHT22;59099;48.806;9.160;2022-12-18T08:11:52;-9.50;99.90
1301;DHT22;59099;48.806;9.160;2022-12-18T08:14:18;-9.50;99.90
1301;DHT22;59099;48.806;9.160;2022-12-18T08:16:44;-9.40;99.90
1301;DHT22;59099;48.806;9.160;2022-12-18T08:19:09;-9.30;99.90
1301;DHT22;59099;48.806;9.160;2022-12-18T08:21:35;-9.30;99.90
1301;DHT22;59099;48.806;9.160;2022-12-18T08:24:02;-9.20;99.90
1301;DHT22;59099;48.806;9.160;2022-12-18T08:26:30;-9.30;99.90
1301;DHT22;59099;48.806;9.160;2022-12-18T08:29:00;-9.20;99.90
1301;DHT22;59099;48.806;9.160;2022-12-18T08:31:27;-9.20;99.90
1301;DHT22;59099;48.806;9.160;2022-12-18T08:33:54;-9.20;99.90
1301;DHT22;59099;48.806;9.160;2022-12-18T08:36:20;-9.00;99.90
1301;DHT22;59099;48.806;9.160;2022-12-18T08:38:47;-9.00;99.90
1301;DHT22;59099;48.806;9.160;2022-12-18T08:41:15;-8.90;99.90
1301;DHT22;59099;48.806;9.160;2022-12-18T08:43:42;-8.80;99.90
1301;DHT22;59099;48.806;9.160;2022-12-18T08:46:32;-8.70;99.90
1301;DHT22;59099;48.806;9.160;2022-12-18T08:48:58;-8.60;99.90
1301;DHT22;59099;48.806;9.160;2022-12-18T08:51:24;-8.60;99.90
1301;DHT22;59099;48.806;9.160;2022-12-18T08:53:50;-8.50;99.90
1301;DHT22;59099;48.806;9.160;2022-12-18T08:56:16;-8.40;99.90
1301;DHT22;59099;48.806;9.160;2022-12-18T08:58:42;-8.30;99.90
1301;DHT22;59099;48.806;9.160;2022-12-18T09:01:10;-8.20;99.90
1301;DHT22;59099;48.806;9.160;2022-12-18T09:03:37;-8.10;99.90
1301;DHT22;59099;48.806;9.160;2022-12-18T09:06:03;-8.00;99.90
1301;DHT22;59099;48.806;9.160;2022-12-18T09:08:29;-7.80;99.90
1301;DHT22;59099;48.806;9.160;2022-12-18T09:10:55;-7.70;99.90
1301;DHT22;59099;48.806;9.160;2022-12-18T09:13:21;-7.60;99.90
1301;DHT22;59099;48.806;9.160;2022-12-18T09:15:48;-7.50;99.90
1301;DHT22;59099;48.806;9.160;2022-12-18T09:18:16;-7.40;99.90
1301;DHT22;59099;48.806;9.160;2022-12-18T09:20:42;-7.30;99.90
1301;DHT22;59099;48.806;9.160;2022-12-18T09:23:08;-7.20;99.90
1301;DHT22;59099;48.806;9.160;2022-12-18T09:25:34;-7.00;99.90
1301;DHT22;59099;48.806;9.160;2022-12-18T09:28:09;-6.90;99.90
1301;DHT22;59099;48.806;9.160;2022-12-18T09:30:38;-6.70;99.90
1301;DHT22;59099;48.806;9.160;2022-12-18T09:33:04;-6.60;99.90
1301;DHT22;59099;48.806;9.160;2022-12-18T09:35:30;-6.50;99.90
1301;DHT22;59099;48.806;9.160;2022-12-18T09:37:55;-6.40;99.90
1301;DHT22;59099;48.806;9.160;2022-12-18T09:40:26;-6.30;99.90
1301;DHT22;59099;48.806;9.160;2022-12-18T09:43:01;-6.20;99.90
1301;DHT22;59099;48.806;9.160;2022-12-18T09:45:40;-6.10;99.90
1301;DHT22;59099;48.806;9.160;2022-12-18T09:48:34;-6.00;99.90
1301;DHT22;59099;48.806;9.160;2022-12-18T09:51:19;-5.90;99.90
1301;DHT22;59099;48.806;9.160;2022-12-18T09:53:52;-5.80;99.90
1301;DHT22;59099;48.806;9.160;2022-12-18T09:56:19;-5.60;99.90
1301;DHT22;59099;48.806;9.160;2022-12-18T09:58:59;-5.40;99.90
1301;DHT22;59099;48.806;9.160;2022-12-18T10:01:27;-5.20;99.90
1301;DHT22;59099;48.806;9.160;2022-12-18T10:03:54;-5.00;99.90
1301;DHT22;59099;48.806;9.160;2022-12-18T10:06:55;-4.80;99.90
1301;DHT22;59099;48.806;9.160;2022-12-18T10:17:45;-4.20;99.90
1301;DHT22;59099;48.806;9.160;2022-12-18T10:20:27;-4.10;99.90
1301;DHT22;59099;48.806;9.160;2022-12-18T10:27:56;-3.90;99.90
1301;DHT22;59099;48.806;9.160;2022-12-18T10:30:24;-3.80;99.90
1301;DHT22;59099;48.806;9.160;2022-12-18T10:32:51;-3.70;99.90
1301;DHT22;59099;48.806;9.160;2022-12-18T10:35:22;-3.60;99.90
1301;DHT22;59099;48.806;9.160;2022-12-18T10:38:23;-3.60;99.90
1301;DHT22;59099;48.806;9.160;2022-12-18T10:41:23;-3.50;99.90
1301;DHT22;59099;48.806;9.160;2022-12-18T10:44:14;-3.30;99.90
1301;DHT22;59099;48.806;9.160;2022-12-18T10:46:41;-3.10;99.90
1301;DHT22;59099;48.806;9.160;2022-12-18T10:49:19;-2.90;99.90
1301;DHT22;59099;48.806;9.160;2022-12-18T10:51:47;-2.70;99.90
1301;DHT22;59099;48.806;9.160;2022-12-18T10:54:21;-2.60;99.90
1301;DHT22;59099;48.806;9.160;2022-12-18T10:56:47;-2.40;99.90
1301;DHT22;59099;48.806;9.160;2022-12-18T10:59:15;-2.20;99.90
1301;DHT22;59099;48.806;9.160;2022-12-18T11:01:52;-1.90;99.90
1301;DHT22;59099;48.806;9.160;2022-12-18T11:04:29;-1.70;99.90
1301;DHT22;59099;48.806;9.160;2022-12-18T11:07:03;-1.50;99.90
1301;DHT22;59099;48.806;9.160;2022-12-18T11:09:34;-1.30;99.90
1301;DHT22;59099;48.806;9.160;2022-12-18T11:12:05;-1.20;99.90
1301;DHT22;59099;48.806;9.160;2022-12-18T11:14:47;-1.10;99.90
1301;DHT22;59099;48.806;9.160;2022-12-18T11:17:29;-0.70;99.90
1301;DHT22;59099;48.806;9.160;2022-12-18T11:20:04;-0.10;99.90
1301;DHT22;59099;48.806;9.160;2022-12-18T11:22:32;1.00;99.90
1301;DHT22;59099;48.806;9.160;2022-12-18T11:27:26;3.40;99.90
1301;DHT22;59099;48.806;9.160;2022-12-18T11:30:20;4.20;99.90
1301;DHT22;59099;48.806;9.160;2022-12-18T11:35:39;6.30;99.90
1301;DHT22;59099;48.806;9.160;2022-12-18T11:38:31;7.10;99.90
1301;DHT22;59099;48.806;9.160;2022-12-18T11:41:16;7.40;97.90
1301;DHT22;59099;48.806;9.160;2022-12-18T11:43:55;7.60;95.40
1301;DHT22;59099;48.806;9.160;2022-12-18T11:46:27;7.50;93.60
1301;DHT22;59099;48.806;9.160;2022-12-18T11:49:30;7.70;93.40
1301;DHT22;59099;48.806;9.160;2022-12-18T11:54:42;8.60;91.80
1301;DHT22;59099;48.806;9.160;2022-12-18T12:00:19;8.50;92.50
1301;DHT22;59099;48.806;9.160;2022-12-18T12:06:01;8.60;89.00
1301;DHT22;59099;48.806;9.160;2022-12-18T12:08:40;8.80;90.00
1301;DHT22;59099;48.806;9.160;2022-12-18T12:11:22;8.30;88.30
1301;DHT22;59099;48.806;9.160;2022-12-18T12:14:09;8.20;88.10
1301;DHT22;59099;48.806;9.160;2022-12-18T12:16:55;7.90;86.60
1301;DHT22;59099;48.806;9.160;2022-12-18T12:25:12;6.20;90.90
1301;DHT22;59099;48.806;9.160;2022-12-18T12:36:04;5.70;91.60
1301;DHT22;59099;48.806;9.160;2022-12-18T12:38:41;5.40;92.90
1301;DHT22;59099;48.806;9.160;2022-12-18T12:41:19;5.20;93.10
1301;DHT22;59099;48.806;9.160;2022-12-18T12:44:08;4.90;93.80
1301;DHT22;59099;48.806;9.160;2022-12-18T12:46:38;4.60;94.00
1301;DHT22;59099;48.806;9.160;2022-12-18T12:49:15;4.30;94.00
1301;DHT22;59099;48.806;9.160;2022-12-18T12:52:03;3.90;94.30
1301;DHT22;59099;48.806;9.160;2022-12-18T12:54:32;3.70;94.70
1301;DHT22;59099;48.806;9.160;2022-12-18T12:57:20;3.70;96.00
1301;DHT22;59099;48.806;9.160;2022-12-18T12:59:49;3.70;95.40
1301;DHT22;59099;48.806;9.160;2022-12-18T13:02:30;3.90;96.30
1301;DHT22;59099;48.806;9.160;2022-12-18T13:07:39;3.90;96.60
1301;DHT22;59099;48.806;9.160;2022-12-18T13:13:05;3.60;95.40
1301;DHT22;59099;48.806;9.160;2022-12-18T13:18:25;3.30;97.70
1301;DHT22;59099;48.806;9.160;2022-12-18T13:26:38;2.40;98.80
1301;DHT22;59099;48.806;9.160;2022-12-18T13:31:13;2.10;99.90
1301;DHT22;59099;48.806;9.160;2022-12-18T13:33:46;2.10;99.90
1301;DHT22;59099;48.806;9.160;2022-12-18T13:38:47;2.20;99.90
1301;DHT22;59099;48.806;9.160;2022-12-18T13:41:35;2.30;99.90
1301;DHT22;59099;48.806;9.160;2022-12-18T13:44:31;2.50;99.90
1301;DHT22;59099;48.806;9.160;2022-12-18T13:47:03;2.60;99.90
1301;DHT22;59099;48.806;9.160;2022-12-18T13:49:42;2.70;99.90
1301;DHT22;59099;48.806;9.160;2022-12-18T13:52:33;2.80;99.90
1301;DHT22;59099;48.806;9.160;2022-12-18T13:55:07;2.80;99.90
1301;DHT22;59099;48.806;9.160;2022-12-18T13:57:40;2.70;99.90
1301;DHT22;59099;48.806;9.160;2022-12-18T14:02:50;2.80;99.90
1301;DHT22;59099;48.806;9.160;2022-12-18T14:05:29;2.70;99.90
1301;DHT22;59099;48.806;9.160;2022-12-18T14:08:01;2.70;99.90
1301;DHT22;59099;48.806;9.160;2022-12-18T14:10:31;2.70;99.90
1301;DHT22;59099;48.806;9.160;2022-12-18T14:13:03;2.60;99.90
1301;DHT22;59099;48.806;9.160;2022-12-18T14:15:42;2.60;99.90
1301;DHT22;59099;48.806;9.160;2022-12-18T14:19:13;2.20;99.90
1301;DHT22;59099;48.806;9.160;2022-12-18T14:21:26;2.10;99.90
1301;DHT22;59099;48.806;9.160;2022-12-18T14:26:40;1.90;99.90
1301;DHT22;59099;48.806;9.160;2022-12-18T14:29:25;1.80;99.90
1301;DHT22;59099;48.806;9.160;2022-12-18T14:32:13;1.70;99.90
1301;DHT22;59099;48.806;9.160;2022-12-18T14:34:45;1.60;99.90
1301;DHT22;59099;48.806;9.160;2022-12-18T14:37:13;1.40;99.90
1301;DHT22;59099;48.806;9.160;2022-12-18T14:39:40;1.20;99.90
1301;DHT22;59099;48.806;9.160;2022-12-18T14:42:09;1.10;99.90
1301;DHT22;59099;48.806;9.160;2022-12-18T14:44:38;1.00;99.90
1301;DHT22;59099;48.806;9.160;2022-12-18T14:47:04;0.80;99.90
1301;DHT22;59099;48.806;9.160;2022-12-18T14:49:33;0.70;99.90
1301;DHT22;59099;48.806;9.160;2022-12-18T14:52:13;0.50;99.90
1301;DHT22;59099;48.806;9.160;2022-12-18T14:54:46;0.40;99.90
1301;DHT22;59099;48.806;9.160;2022-12-18T14:57:24;0.20;99.90
1301;DHT22;59099;48.806;9.160;2022-12-18T14:59:50;0.10;99.90
1301;DHT22;59099;48.806;9.160;2022-12-18T15:02:22;0.00;99.90
1301;DHT22;59099;48.806;9.160;2022-12-18T15:07:49;-0.20;99.90
1301;DHT22;59099;48.806;9.160;2022-12-18T15:10:24;-0.30;99.90
1301;DHT22;59099;48.806;9.160;2022-12-18T15:25:40;-1.00;99.90
1301;DHT22;59099;48.806;9.160;2022-12-18T15:28:19;-1.10;99.90
1301;DHT22;59099;48.806;9.160;2022-12-18T15:36:23;-1.30;99.90
1301;DHT22;59099;48.806;9.160;2022-12-18T15:38:56;-1.40;99.90
1301;DHT22;59099;48.806;9.160;2022-12-18T15:41:25;-1.40;99.90
1301;DHT22;59099;48.806;9.160;2022-12-18T15:43:52;-1.50;99.90
1301;DHT22;59099;48.806;9.160;2022-12-18T15:46:23;-1.50;99.90
1301;DHT22;59099;48.806;9.160;2022-12-18T15:48:54;-1.60;99.90
1301;DHT22;59099;48.806;9.160;2022-12-18T15:51:33;-1.70;99.90
1301;DHT22;59099;48.806;9.160;2022-12-18T15:54:02;-1.80;99.90
1301;DHT22;59099;48.806;9.160;2022-12-18T15:56:32;-1.80;99.90
1301;DHT22;59099;48.806;9.160;2022-12-18T15:59:20;-1.90;99.90
1301;DHT22;59099;48.806;9.160;2022-12-18T16:01:51;-2.00;99.90
1301;DHT22;59099;48.806;9.160;2022-12-18T16:04:22;-1.90;99.90
1301;DHT22;59099;48.806;9.160;2022-12-18T16:06:50;-1.90;99.90
1301;DHT22;59099;48.806;9.160;2022-12-18T16:09:17;-1.90;99.90
1301;DHT22;59099;48.806;9.160;2022-12-18T16:11:43;-2.00;99.90
1301;DHT22;59099;48.806;9.160;2022-12-18T16:14:21;-2.10;99.90
1301;DHT22;59099;48.806;9.160;2022-12-18T16:16:53;-2.10;99.90
1301;DHT22;59099;48.806;9.160;2022-12-18T16:19:19;-2.20;99.90
1301;DHT22;59099;48.806;9.160;2022-12-18T16:21:47;-2.20;99.90
1301;DHT22;59099;48.806;9.160;2022-12-18T16:24:16;-2.30;99.90
1301;DHT22;59099;48.806;9.160;2022-12-18T16:26:43;-2.20;99.90
1301;DHT22;59099;48.806;9.160;2022-12-18T16:29:10;-2.30;99.90
1301;DHT22;59099;48.806;9.160;2022-12-18T16:31:36;-2.30;99.90
1301;DHT22;59099;48.806;9.160;2022-12-18T16:34:25;-2.30;99.90
1301;DHT22;59099;48.806;9.160;2022-12-18T16:36:59;-2.30;99.90
1301;DHT22;59099;48.806;9.160;2022-12-18T16:39:25;-2.30;99.90
1301;DHT22;59099;48.806;9.160;2022-12-18T16:41:51;-2.30;99.90
1301;DHT22;59099;48.806;9.160;2022-12-18T16:44:19;-2.30;99.90
1301;DHT22;59099;48.806;9.160;2022-12-18T16:46:45;-2.20;99.90
1301;DHT22;59099;48.806;9.160;2022-12-18T16:49:15;-2.20;99.90
1301;DHT22;59099;48.806;9.160;2022-12-18T16:51:41;-2.20;99.90
1301;DHT22;59099;48.806;9.160;2022-12-18T16:54:10;-2.20;99.90
1301;DHT22;59099;48.806;9.160;2022-12-18T16:56:39;-2.30;99.90
1301;DHT22;59099;48.806;9.160;2022-12-18T16:59:05;-2.40;99.90
1301;DHT22;59099;48.806;9.160;2022-12-18T17:01:33;-2.40;99.90
1301;DHT22;59099;48.806;9.160;2022-12-18T17:04:01;-2.40;99.90
1301;DHT22;59099;48.806;9.160;2022-12-18T17:06:29;-2.40;99.90
1301;DHT22;59099;48.806;9.160;2022-12-18T17:09:02;-2.40;99.90
1301;DHT22;59099;48.806;9.160;2022-12-18T17:11:34;-2.30;99.90
1301;DHT22;59099;48.806;9.160;2022-12-18T17:14:15;-2.30;99.90
1301;DHT22;59099;48.806;9.160;2022-12-18T17:16:41;-2.20;99.90
1301;DHT22;59099;48.806;9.160;2022-12-18T17:19:08;-2.20;99.90
1301;DHT22;59099;48.806;9.160;2022-12-18T17:21:34;-2.20;99.90
1301;DHT22;59099;48.806;9.160;2022-12-18T17:24:00;-2.10;99.90
1301;DHT22;59099;48.806;9.160;2022-12-18T17:26:26;-2.10;99.90
1301;DHT22;59099;48.806;9.160;2022-12-18T17:28:56;-2.00;99.90
1301;DHT22;59099;48.806;9.160;2022-12-18T17:31:27;-1.90;99.90
1301;DHT22;59099;48.806;9.160;2022-12-18T17:33:57;-1.90;99.90
1301;DHT22;59099;48.806;9.160;2022-12-18T17:36:30;-1.90;99.90
1301;DHT22;59099;48.806;9.160;2022-12-18T17:38:59;-1.80;99.90
1301;DHT22;59099;48.806;9.160;2022-12-18T17:41:26;-1.80;99.90
1301;DHT22;59099;48.806;9.160;2022-12-18T17:46:22;-1.70;99.90
1301;DHT22;59099;48.806;9.160;2022-12-18T17:48:48;-1.70;99.90
1301;DHT22;59099;48.806;9.160;2022-12-18T17:51:14;-1.70;99.90
1301;DHT22;59099;48.806;9.160;2022-12-18T17:53:41;-1.70;99.90
1301;DHT22;59099;48.806;9.160;2022-12-18T17:56:11;-1.60;99.90
1301;DHT22;59099;48.806;9.160;2022-12-18T17:58:37;-1.60;99.90
1301;DHT22;59099;48.806;9.160;2022-12-18T18:01:03;-1.60;99.90
1301;DHT22;59099;48.806;9.160;2022-12-18T18:03:33;-1.50;99.90
1301;DHT22;59099;48.806;9.160;2022-12-18T18:06:03;-1.50;99.90
1301;DHT22;59099;48.806;9.160;2022-12-18T18:08:29;-1.50;99.90
1301;DHT22;59099;48.806;9.160;2022-12-18T18:10:57;-1.50;99.90
1301;DHT22;59099;48.806;9.160;2022-12-18T18:13:46;-1.50;99.90
1301;DHT22;59099;48.806;9.160;2022-12-18T18:18:56;-1.50;99.90